createdAt,value
2023-11-02T00:01:53.243Z,85.90
2023-11-02T00:04:21.921Z,85.85
2023-11-02T00:06:51.259Z,84.77
2023-11-02T00:09:35.433Z,85.12
2023-11-02T00:12:05.635Z,86.27
2023-11-02T00:14:39.417Z,86.23
2023-11-02T00:17:28.928Z,86.04
2023-11-02T00:19:57.384Z,84.34
2023-11-02T00:22:25.740Z,84.88
2023-11-02T00:24:55.539Z,84.62
2023-11-02T00:27:24.075Z,85.13
2023-11-02T00:29:52.608Z,84.00
2023-11-02T00:32:22.350Z,85.12
2023-11-02T00:34:50.893Z,86.15
2023-11-02T00:37:19.627Z,85.81
2023-11-02T00:39:48.210Z,86.76
2023-11-02T00:42:18.209Z,87.19
2023-11-02T00:44:48.558Z,87.74
2023-11-02T00:47:18.195Z,86.63
2023-11-02T00:49:48.932Z,85.85
2023-11-02T00:52:25.277Z,85.79
2023-11-02T00:54:57.602Z,84.66
2023-11-02T00:57:29.943Z,85.60
2023-11-02T00:59:59.497Z,85.10
2023-11-02T01:02:37.324Z,85.16
2023-11-02T01:05:07.785Z,85.23
2023-11-02T01:07:36.337Z,84.96
2023-11-02T01:10:07.188Z,84.32
2023-11-02T01:12:38.510Z,83.17
2023-11-02T01:15:09.739Z,84.48
2023-11-02T01:17:40.813Z,83.60
2023-11-02T01:20:11.664Z,83.51
2023-11-02T01:22:56.588Z,83.05
2023-11-02T01:25:27.363Z,83.74
2023-11-02T01:28:02.132Z,83.55
2023-11-02T01:31:14.856Z,84.00
2023-11-02T01:34:03.488Z,85.65
2023-11-02T01:36:34.824Z,85.58
2023-11-02T01:39:31.323Z,86.34
2023-11-02T01:42:07.405Z,86.73
2023-11-02T01:44:43.369Z,87.55
2023-11-02T01:47:21.450Z,87.60
2023-11-02T01:49:58.298Z,87.18
2023-11-02T01:52:42.002Z,86.91
2023-11-02T01:55:15.906Z,85.90
2023-11-02T01:57:54.096Z,85.55
2023-11-02T02:00:25.716Z,85.20
2023-11-02T02:02:59.387Z,84.75
2023-11-02T02:05:32.550Z,84.94
2023-11-02T02:08:06.268Z,84.94
2023-11-02T02:10:47.831Z,84.03
2023-11-02T02:13:29.630Z,83.79
2023-11-02T02:16:09.547Z,85.05
2023-11-02T02:18:45.832Z,85.33
2023-11-02T02:21:18.498Z,85.85
2023-11-02T02:23:51.071Z,86.02
2023-11-02T02:26:34.360Z,86.18
2023-11-02T02:29:20.170Z,86.30
2023-11-02T02:32:04.021Z,86.64
2023-11-02T02:34:57.147Z,86.58
2023-11-02T02:37:30.527Z,86.08
2023-11-02T02:40:04.318Z,86.85
2023-11-02T02:42:33.103Z,86.74
2023-11-02T02:45:03.587Z,87.07
2023-11-02T02:47:33.607Z,87.44
2023-11-02T02:50:04.357Z,87.05
2023-11-02T02:52:33.948Z,87.01
2023-11-02T02:55:04.307Z,87.02
2023-11-02T02:57:33.998Z,87.12
2023-11-02T03:00:03.661Z,86.70
2023-11-02T03:02:33.782Z,87.50
2023-11-02T03:05:03.959Z,87.77
2023-11-02T03:07:33.890Z,87.94
2023-11-02T03:10:04.736Z,88.04
2023-11-02T03:12:36.007Z,89.72
2023-11-02T03:15:08.119Z,89.67
2023-11-02T03:17:46.574Z,90.21
2023-11-02T03:20:17.679Z,90.20
2023-11-02T03:22:46.972Z,90.19
2023-11-02T03:25:21.032Z,89.78
2023-11-02T03:28:01.474Z,89.13
2023-11-02T03:30:38.870Z,89.57
2023-11-02T03:33:13.686Z,88.87
2023-11-02T03:35:45.783Z,88.97
2023-11-02T03:38:21.391Z,88.80
2023-11-02T03:41:01.434Z,88.70
2023-11-02T03:43:33.244Z,88.93
2023-11-02T03:46:23.506Z,88.55
2023-11-02T03:48:57.403Z,88.41
2023-11-02T03:51:38.631Z,89.14
2023-11-02T03:54:16.106Z,89.30
2023-11-02T03:56:58.139Z,88.78
2023-11-02T03:59:34.261Z,89.16
2023-11-02T04:02:06.333Z,89.41
2023-11-02T04:04:39.487Z,89.37
2023-11-02T04:07:17.736Z,89.29
2023-11-02T04:09:51.269Z,89.51
2023-11-02T04:12:33.649Z,88.88
2023-11-02T04:15:02.810Z,89.24
2023-11-02T04:17:32.536Z,88.67
2023-11-02T04:20:02.405Z,89.15
2023-11-02T04:22:32.243Z,89.65
2023-11-02T04:25:00.495Z,89.98
2023-11-02T04:27:28.857Z,89.53
2023-11-02T04:29:57.288Z,89.78
2023-11-02T04:32:25.835Z,90.27
2023-11-02T04:34:54.355Z,90.49
2023-11-02T04:37:22.828Z,90.21
2023-11-02T04:39:52.516Z,90.54
2023-11-02T04:42:22.553Z,90.44
2023-11-02T04:44:53.117Z,90.38
2023-11-02T04:47:21.741Z,90.49
2023-11-02T04:49:50.172Z,90.61
2023-11-02T04:52:18.508Z,90.76
2023-11-02T04:54:46.962Z,90.56
2023-11-02T04:57:17.135Z,90.90
2023-11-02T04:59:46.293Z,91.19
2023-11-02T05:02:15.388Z,91.46
2023-11-02T05:04:43.829Z,91.52
2023-11-02T05:07:12.514Z,92.08
2023-11-02T05:09:40.894Z,91.34
2023-11-02T05:12:09.422Z,91.57
2023-11-02T05:14:39.226Z,92.25
2023-11-02T05:17:07.935Z,92.03
2023-11-02T05:19:39.046Z,92.38
2023-11-02T05:22:08.743Z,91.98
2023-11-02T05:24:38.287Z,92.49
2023-11-02T05:27:07.671Z,92.66
2023-11-02T05:29:36.184Z,92.60
2023-11-02T05:32:06.890Z,92.86
2023-11-02T05:34:35.445Z,92.28
2023-11-02T05:37:05.653Z,92.11
2023-11-02T05:39:34.012Z,92.32
2023-11-02T05:42:02.376Z,92.43
2023-11-02T05:44:31.244Z,92.44
2023-11-02T05:47:00.146Z,92.86
2023-11-02T05:49:30.117Z,92.50
2023-11-02T05:51:58.479Z,92.55
2023-11-02T05:54:26.869Z,92.71
2023-11-02T05:56:55.269Z,92.74
2023-11-02T05:59:24.280Z,92.59
2023-11-02T06:01:52.530Z,93.08
2023-11-02T06:04:20.891Z,92.91
2023-11-02T06:06:51.270Z,92.99
2023-11-02T06:09:19.613Z,93.37
2023-11-02T06:11:48.050Z,93.76
2023-11-02T06:14:16.499Z,93.80
2023-11-02T06:16:45.356Z,93.65
2023-11-02T06:19:16.136Z,94.04
2023-11-02T06:21:44.631Z,93.25
2023-11-02T06:24:14.429Z,93.30
2023-11-02T06:26:43.240Z,94.04
2023-11-02T06:29:11.900Z,93.38
2023-11-02T06:31:40.284Z,93.70
2023-11-02T06:34:11.359Z,94.10
2023-11-02T06:36:40.262Z,94.04
2023-11-02T06:39:09.749Z,93.59
2023-11-02T06:41:40.064Z,93.45
2023-11-02T06:44:08.402Z,93.94
2023-11-02T06:46:36.914Z,93.45
2023-11-02T06:49:06.282Z,92.91
2023-11-02T06:51:34.668Z,93.11
2023-11-02T06:54:03.048Z,93.35
2023-11-02T06:56:31.586Z,93.09
2023-11-02T06:59:01.653Z,93.35
2023-11-02T07:01:30.664Z,93.86
2023-11-02T07:03:59.576Z,93.22
2023-11-02T07:06:27.999Z,93.78
2023-11-02T07:08:56.745Z,93.55
2023-11-02T07:11:25.231Z,93.88
2023-11-02T07:13:54.035Z,93.77
2023-11-02T07:16:24.242Z,94.17
2023-11-02T07:19:02.801Z,94.04
2023-11-02T07:21:31.604Z,93.64
2023-11-02T07:24:00.546Z,93.21
2023-11-02T07:26:30.575Z,93.21
2023-11-02T07:28:59.964Z,93.32
2023-11-02T07:31:30.504Z,93.15
2023-11-02T07:33:59.105Z,93.62
2023-11-02T07:36:28.623Z,92.95
2023-11-02T07:38:57.352Z,93.12
2023-11-02T07:41:26.044Z,93.59
2023-11-02T07:43:54.540Z,93.52
2023-11-02T07:46:23.225Z,93.60
2023-11-02T07:48:53.914Z,93.21
2023-11-02T07:51:25.254Z,93.25
2023-11-02T07:53:53.838Z,93.75
2023-11-02T07:56:23.268Z,93.50
2023-11-02T07:58:52.417Z,92.97
2023-11-02T08:01:21.281Z,93.03
2023-11-02T08:03:49.981Z,92.44
2023-11-02T08:06:20.290Z,92.47
2023-11-02T08:08:48.862Z,91.98
2023-11-02T08:11:17.442Z,91.11
2023-11-02T08:13:47.279Z,91.64
2023-11-02T08:16:22.142Z,91.30
2023-11-02T08:18:51.007Z,90.41
2023-11-02T08:21:21.261Z,89.76
2023-11-02T08:23:49.771Z,89.64
2023-11-02T08:26:18.710Z,89.11
2023-11-02T08:28:47.071Z,88.76
2023-11-02T08:31:15.754Z,88.87
2023-11-02T08:33:44.320Z,87.57
2023-11-02T08:36:16.323Z,86.23
2023-11-02T08:38:47.040Z,86.35
2023-11-02T08:41:22.490Z,86.34
2023-11-02T08:43:51.782Z,85.42
2023-11-02T08:46:22.119Z,84.57
2023-11-02T08:48:51.617Z,83.82
2023-11-02T08:51:21.519Z,83.93
2023-11-02T08:53:51.966Z,83.94
2023-11-02T08:56:21.228Z,82.31
2023-11-02T08:58:52.034Z,81.62
2023-11-02T09:01:24.045Z,80.10
2023-11-02T09:03:53.031Z,80.58
2023-11-02T09:06:22.947Z,80.40
2023-11-02T09:08:54.842Z,81.12
2023-11-02T09:11:23.624Z,80.35
2023-11-02T09:13:52.122Z,80.95
2023-11-02T09:16:20.861Z,80.52
2023-11-02T09:18:53.127Z,79.41
2023-11-02T09:21:22.176Z,79.86
2023-11-02T09:23:52.246Z,79.34
2023-11-02T09:26:21.790Z,79.71
2023-11-02T09:28:51.024Z,78.22
2023-11-02T09:31:19.442Z,77.72
2023-11-02T09:33:48.457Z,77.40
2023-11-02T09:36:18.603Z,76.51
2023-11-02T09:38:47.018Z,77.01
2023-11-02T09:41:17.204Z,77.44
2023-11-02T09:43:45.657Z,76.79
2023-11-02T09:46:14.684Z,76.73
2023-11-02T09:48:43.595Z,76.93
2023-11-02T09:51:13.678Z,76.85
2023-11-02T09:53:42.101Z,77.05
2023-11-02T09:56:10.896Z,76.12
2023-11-02T09:58:41.978Z,76.38
2023-11-02T10:01:13.024Z,76.61
2023-11-02T10:03:43.562Z,76.42
2023-11-02T10:06:12.861Z,76.03
2023-11-02T10:08:41.921Z,76.61
2023-11-02T10:11:12.677Z,76.93
2023-11-02T10:13:42.964Z,76.77
2023-11-02T10:16:11.837Z,76.09
2023-11-02T10:18:40.901Z,76.24
2023-11-02T10:21:10.522Z,76.91
2023-11-02T10:23:51.782Z,77.48
2023-11-02T10:26:20.829Z,77.90
2023-11-02T10:28:51.864Z,77.10
2023-11-02T10:31:21.197Z,77.53
2023-11-02T10:33:52.779Z,77.63
2023-11-02T10:36:22.596Z,77.17
2023-11-02T10:38:51.928Z,76.23
2023-11-02T10:41:21.118Z,76.19
2023-11-02T10:43:51.307Z,76.76
2023-11-02T10:46:21.869Z,76.80
2023-11-02T10:48:55.153Z,76.85
2023-11-02T10:51:26.516Z,75.80
2023-11-02T10:54:08.705Z,77.04
2023-11-02T10:56:44.728Z,74.48
2023-11-02T10:59:15.731Z,75.47
2023-11-02T11:01:44.308Z,77.04
2023-11-02T11:04:13.190Z,77.45
2023-11-02T11:06:44.826Z,77.19
2023-11-02T11:09:14.250Z,77.51
2023-11-02T11:11:43.144Z,78.02
2023-11-02T11:14:11.603Z,77.48
2023-11-02T11:16:42.963Z,77.63
2023-11-02T11:19:12.568Z,77.66
2023-11-02T11:21:42.633Z,77.74
2023-11-02T11:24:18.052Z,77.04
2023-11-02T11:26:48.928Z,77.28
2023-11-02T11:29:39.511Z,77.94
2023-11-02T11:32:10.454Z,77.76
2023-11-02T11:35:07.170Z,78.05
2023-11-02T11:37:38.616Z,78.01
2023-11-02T11:40:11.481Z,78.46
2023-11-02T11:43:02.127Z,77.72
2023-11-02T11:45:32.962Z,78.01
2023-11-02T11:48:04.005Z,78.49
2023-11-02T11:50:37.188Z,78.46
2023-11-02T11:53:16.417Z,78.81
2023-11-02T11:55:45.994Z,78.72
2023-11-02T11:58:15.353Z,79.27
2023-11-02T12:01:17.110Z,78.91
2023-11-02T12:03:50.304Z,78.33
2023-11-02T12:06:38.950Z,78.92
2023-11-02T12:09:11.284Z,79.63
2023-11-02T12:11:40.587Z,80.29
2023-11-02T12:14:14.582Z,79.90
2023-11-02T12:16:43.689Z,81.48
2023-11-02T12:19:13.804Z,81.49
2023-11-02T12:21:42.804Z,82.18
2023-11-02T12:24:13.434Z,84.57
2023-11-02T12:26:42.239Z,85.24
2023-11-02T12:29:12.305Z,84.53
2023-11-02T12:31:42.948Z,85.67
2023-11-02T12:34:14.048Z,85.78
2023-11-02T12:36:45.021Z,85.46
2023-11-02T12:39:16.333Z,85.40
2023-11-02T12:41:48.952Z,85.51
2023-11-02T12:44:21.434Z,85.51
2023-11-02T12:46:54.061Z,85.07
2023-11-02T12:49:26.610Z,85.32
2023-11-02T12:52:08.369Z,86.71
2023-11-02T12:54:38.234Z,87.45
2023-11-02T12:57:08.139Z,87.63
2023-11-02T12:59:41.596Z,89.59
2023-11-02T13:02:12.770Z,90.07
2023-11-02T13:04:54.223Z,90.25
2023-11-02T13:07:24.354Z,90.08
2023-11-02T13:10:03.848Z,89.37
2023-11-02T13:12:35.853Z,89.26
2023-11-02T13:15:09.513Z,90.52
2023-11-02T13:17:40.421Z,90.69
2023-11-02T13:20:11.954Z,91.43
2023-11-02T13:22:40.764Z,89.76
2023-11-02T13:25:09.546Z,91.46
2023-11-02T13:27:38.931Z,90.93
2023-11-02T13:30:10.919Z,90.54
2023-11-02T13:32:40.766Z,90.13
2023-11-02T13:35:11.277Z,89.82
2023-11-02T13:37:40.284Z,90.23
2023-11-02T13:40:11.703Z,89.38
2023-11-02T13:42:42.529Z,90.19
2023-11-02T13:45:12.508Z,90.60
2023-11-02T13:47:43.124Z,90.59
2023-11-02T13:50:15.310Z,89.45
2023-11-02T13:52:45.060Z,89.66
2023-11-02T13:55:15.012Z,89.47
2023-11-02T13:57:43.877Z,89.70
2023-11-02T14:00:16.760Z,89.19
2023-11-02T14:02:45.846Z,89.22
2023-11-02T14:05:16.516Z,89.56
2023-11-02T14:07:46.462Z,89.14
2023-11-02T14:10:16.647Z,89.28
2023-11-02T14:12:45.366Z,89.08
2023-11-02T14:15:14.019Z,88.88
2023-11-02T14:17:42.654Z,89.10
2023-11-02T14:20:12.227Z,88.76
2023-11-02T14:22:42.465Z,89.13
2023-11-02T14:25:11.435Z,88.18
2023-11-02T14:27:40.179Z,88.42
2023-11-02T14:30:10.033Z,88.47
2023-11-02T14:32:38.711Z,88.50
2023-11-02T14:35:07.671Z,87.68
2023-11-02T14:37:36.454Z,87.29
2023-11-02T14:40:10.466Z,87.28
2023-11-02T14:42:39.458Z,88.32
2023-11-02T14:45:10.219Z,88.14
2023-11-02T14:47:38.959Z,88.37
2023-11-02T14:50:08.273Z,88.56
2023-11-02T14:52:39.152Z,87.95
2023-11-02T14:55:11.840Z,88.60
2023-11-02T14:57:40.332Z,89.04
2023-11-02T15:00:13.674Z,89.99
2023-11-02T15:02:42.532Z,90.55
2023-11-02T15:05:12.297Z,90.64
2023-11-02T15:07:41.267Z,91.16
2023-11-02T15:10:12.519Z,91.04
2023-11-02T15:12:42.488Z,91.52
2023-11-02T15:15:13.653Z,92.19
2023-11-02T15:17:42.414Z,92.74
2023-11-02T15:20:13.988Z,93.06
2023-11-02T15:22:43.672Z,93.51
2023-11-02T15:25:13.535Z,92.68
2023-11-02T15:27:43.598Z,92.44
2023-11-02T15:30:14.044Z,92.44
2023-11-02T15:32:43.074Z,92.88
2023-11-02T15:35:11.401Z,94.24
2023-11-02T15:37:40.329Z,94.39
2023-11-02T15:40:09.685Z,93.95
2023-11-02T15:42:40.087Z,93.19
2023-11-02T15:45:11.149Z,93.81
2023-11-02T15:47:40.236Z,93.55
2023-11-02T15:50:09.977Z,93.11
2023-11-02T15:52:44.866Z,92.80
2023-11-02T15:55:15.738Z,92.64
2023-11-02T15:57:47.642Z,92.85
2023-11-02T16:00:18.382Z,92.63
2023-11-02T16:02:48.398Z,93.14
2023-11-02T16:05:18.915Z,93.64
2023-11-02T16:07:48.769Z,94.07
2023-11-02T16:10:17.628Z,94.15
2023-11-02T16:12:48.613Z,94.17
2023-11-02T16:15:18.720Z,94.16
2023-11-02T16:17:48.478Z,93.61
2023-11-02T16:20:19.659Z,94.43
2023-11-02T16:22:49.192Z,94.58
2023-11-02T16:25:19.640Z,94.02
2023-11-02T16:27:50.351Z,94.23
2023-11-02T16:30:19.017Z,93.76
2023-11-02T16:32:47.457Z,94.39
2023-11-02T16:35:28.787Z,94.43
2023-11-02T16:38:02.458Z,93.92
2023-11-02T16:40:30.968Z,93.75
2023-11-02T16:43:02.887Z,94.34
2023-11-02T16:45:31.552Z,94.15
2023-11-02T16:48:00.496Z,94.23
2023-11-02T16:50:29.254Z,94.54
2023-11-02T16:52:57.896Z,95.47
2023-11-02T16:55:26.909Z,94.72
2023-11-02T16:57:55.390Z,94.61
2023-11-02T17:00:26.341Z,94.64
2023-11-02T17:02:54.965Z,94.88
2023-11-02T17:05:23.630Z,94.35
2023-11-02T17:07:52.081Z,94.63
2023-11-02T17:10:20.870Z,94.37
2023-11-02T17:12:53.729Z,95.27
2023-11-02T17:15:22.110Z,95.66
2023-11-02T17:17:52.690Z,96.10
2023-11-02T17:20:22.109Z,96.05
2023-11-02T17:22:51.477Z,96.17
2023-11-02T17:25:20.005Z,95.51
2023-11-02T17:27:48.562Z,96.48
2023-11-02T17:30:17.245Z,96.04
2023-11-02T17:32:45.981Z,96.40
2023-11-02T17:35:16.395Z,96.60
2023-11-02T17:37:44.963Z,96.22
2023-11-02T17:40:14.979Z,95.87
2023-11-02T17:42:43.526Z,96.51
2023-11-02T17:45:12.804Z,96.53
2023-11-02T17:47:41.322Z,96.16
2023-11-02T17:50:10.558Z,96.58
2023-11-02T17:52:40.634Z,96.92
2023-11-02T17:55:09.985Z,96.95
2023-11-02T17:57:38.759Z,97.69
2023-11-02T18:00:09.289Z,97.67
2023-11-02T18:02:40.803Z,98.20
2023-11-02T18:05:09.894Z,97.94
2023-11-02T18:07:38.711Z,98.17
2023-11-02T18:10:11.214Z,98.42
2023-11-02T18:12:40.525Z,98.82
2023-11-02T18:15:10.720Z,99.16
2023-11-02T18:17:39.220Z,99.31
2023-11-02T18:20:10.333Z,99.86
2023-11-02T18:22:38.876Z,99.68
2023-11-02T18:25:10.072Z,99.01
2023-11-02T18:27:40.582Z,99.12
2023-11-02T18:30:10.920Z,99.89
2023-11-02T18:32:39.993Z,100.00
2023-11-02T18:35:10.275Z,100.00
2023-11-02T18:37:39.445Z,100.00
2023-11-02T18:40:11.147Z,100.00
2023-11-02T18:42:39.570Z,100.00
2023-11-02T18:45:11.784Z,100.00
2023-11-02T18:47:40.945Z,100.00
2023-11-02T18:50:10.996Z,100.00
2023-11-02T18:52:42.268Z,100.00
2023-11-02T18:55:12.933Z,100.00
2023-11-02T18:57:41.379Z,100.00
2023-11-02T19:00:10.966Z,100.00
2023-11-02T19:02:40.472Z,100.00
2023-11-02T19:05:11.657Z,100.00
2023-11-02T19:07:43.442Z,100.00
2023-11-02T19:10:17.055Z,100.00
2023-11-02T19:12:45.696Z,100.00
2023-11-02T19:15:15.254Z,100.00
2023-11-02T19:17:44.308Z,100.00
2023-11-02T19:20:13.175Z,100.00
2023-11-02T19:22:41.519Z,100.00
2023-11-02T19:25:10.271Z,100.00
2023-11-02T19:27:40.679Z,100.00
2023-11-02T19:30:11.162Z,100.00
2023-11-02T19:32:39.910Z,100.00
2023-11-02T19:35:09.626Z,100.00
2023-11-02T19:37:40.252Z,100.00
2023-11-02T19:40:12.348Z,100.00
2023-11-02T19:42:42.486Z,100.00
2023-11-02T19:45:12.187Z,100.00
2023-11-02T19:47:41.157Z,100.00
2023-11-02T19:50:13.796Z,100.00
2023-11-02T19:52:43.712Z,100.00
2023-11-02T19:55:12.307Z,100.00
2023-11-02T19:57:44.039Z,100.00
2023-11-02T20:00:13.739Z,100.00
2023-11-02T20:02:43.810Z,100.00
2023-11-02T20:05:12.764Z,100.00
2023-11-02T20:07:41.675Z,100.00
2023-11-02T20:10:11.712Z,100.00
2023-11-02T20:12:40.487Z,100.00
2023-11-02T20:15:12.707Z,100.00
2023-11-02T20:17:41.764Z,100.00
2023-11-02T20:20:11.785Z,100.00
2023-11-02T20:22:40.406Z,100.00
2023-11-02T20:25:09.544Z,100.00
2023-11-02T20:27:37.909Z,100.00
2023-11-02T20:30:07.257Z,100.00
2023-11-02T20:32:36.913Z,100.00
2023-11-02T20:35:05.771Z,100.00
2023-11-02T20:37:34.142Z,100.00
2023-11-02T20:40:07.340Z,99.25
2023-11-02T20:42:36.359Z,99.62
2023-11-02T20:45:07.667Z,99.03
2023-11-02T20:47:38.176Z,99.04
2023-11-02T20:50:07.313Z,99.33
2023-11-02T20:52:35.955Z,99.84
2023-11-02T20:55:04.527Z,98.93
2023-11-02T20:57:33.121Z,99.83
2023-11-02T21:00:02.239Z,99.94
2023-11-02T21:02:30.865Z,99.87
2023-11-02T21:05:00.749Z,99.58
2023-11-02T21:07:29.579Z,99.33
2023-11-02T21:09:57.985Z,99.30
2023-11-02T21:12:26.494Z,97.96
2023-11-02T21:14:55.144Z,98.50
2023-11-02T21:17:23.694Z,98.84
2023-11-02T21:19:52.694Z,98.85
2023-11-02T21:22:23.052Z,98.83
2023-11-02T21:24:55.121Z,98.16
2023-11-02T21:27:24.480Z,97.24
2023-11-02T21:29:52.982Z,98.12
2023-11-02T21:32:21.355Z,98.42
2023-11-02T21:34:49.885Z,98.02
2023-11-02T21:37:19.092Z,97.16
2023-11-02T21:39:49.124Z,97.83
2023-11-02T21:42:17.614Z,96.72
2023-11-02T21:44:47.957Z,96.25
2023-11-02T21:47:16.395Z,96.79
2023-11-02T21:49:45.423Z,97.52
2023-11-02T21:52:14.254Z,97.02
2023-11-02T21:54:42.789Z,96.78
2023-11-02T21:57:12.582Z,96.62
2023-11-02T21:59:41.764Z,96.50
2023-11-02T22:02:10.144Z,97.00
2023-11-02T22:04:39.152Z,96.33
2023-11-02T22:07:08.253Z,96.50
2023-11-02T22:09:36.825Z,96.73
2023-11-02T22:12:05.920Z,96.03
2023-11-02T22:14:39.709Z,97.11
2023-11-02T22:17:08.203Z,96.86
2023-11-02T22:19:36.565Z,97.27
2023-11-02T22:22:05.359Z,97.21
2023-11-02T22:24:34.085Z,96.62
2023-11-02T22:27:03.935Z,96.22
2023-11-02T22:29:32.776Z,96.18
2023-11-02T22:32:02.988Z,96.01
2023-11-02T22:34:32.447Z,96.67
2023-11-02T22:37:02.412Z,96.43
2023-11-02T22:39:31.065Z,95.52
2023-11-02T22:41:59.747Z,96.37
2023-11-02T22:44:28.365Z,96.80
2023-11-02T22:46:56.873Z,97.12
2023-11-02T22:49:26.891Z,97.11
2023-11-02T22:51:56.511Z,96.03
2023-11-02T22:54:25.175Z,97.07
2023-11-02T22:56:54.697Z,96.22
2023-11-02T22:59:23.509Z,96.91
2023-11-02T23:01:55.659Z,96.53
2023-11-02T23:04:24.858Z,97.75
2023-11-02T23:06:55.246Z,97.23
2023-11-02T23:09:24.201Z,96.62
2023-11-02T23:11:55.576Z,97.54
2023-11-02T23:14:24.116Z,97.24
2023-11-02T23:16:52.799Z,97.05
2023-11-02T23:19:21.335Z,97.00
2023-11-02T23:21:49.711Z,97.09
2023-11-02T23:24:20.153Z,96.77
2023-11-02T23:26:48.564Z,96.92
2023-11-02T23:29:17.137Z,96.75
2023-11-02T23:31:45.763Z,96.47
2023-11-02T23:34:14.253Z,96.00
2023-11-02T23:36:42.877Z,96.46
2023-11-02T23:39:11.723Z,95.10
2023-11-02T23:41:43.180Z,95.27
2023-11-02T23:44:12.652Z,96.42
2023-11-02T23:46:42.137Z,95.89
2023-11-02T23:49:11.722Z,95.23
2023-11-02T23:51:40.322Z,95.39
2023-11-02T23:54:09.210Z,95.58
2023-11-02T23:56:37.696Z,95.06
2023-11-02T23:59:07.928Z,95.42
